createdAt,value
2022-12-13T00:00:41.064Z,7.57
2022-12-13T00:03:44.248Z,8.17
2022-12-13T00:06:47.647Z,5.80
2022-12-13T00:09:50.653Z,6.63
2022-12-13T00:12:55.271Z,7.23
2022-12-13T00:15:58.849Z,8.23
2022-12-13T00:19:02.721Z,4.90
2022-12-13T00:25:09.310Z,4.45
2022-12-13T00:28:13.923Z,10.57
2022-12-13T00:34:41.875Z,4.30
2022-12-13T00:37:45.617Z,5.40
2022-12-13T00:43:53.069Z,2.35
2022-12-13T00:46:56.501Z,4.47
2022-12-13T00:49:59.966Z,3.33
2022-12-13T00:53:03.186Z,3.13
2022-12-13T00:56:11.767Z,3.35
2022-12-13T00:59:16.640Z,2.22
2022-12-13T01:02:19.668Z,2.78
2022-12-13T01:05:40.046Z,3.00
2022-12-13T01:08:46.815Z,2.00
2022-12-13T01:14:56.273Z,2.55
2022-12-13T01:18:00.303Z,2.30
2022-12-13T01:21:07.216Z,3.85
2022-12-13T01:24:10.384Z,2.65
2022-12-13T01:27:13.478Z,3.80
2022-12-13T01:30:18.006Z,3.00
2022-12-13T01:33:20.944Z,3.30
2022-12-13T01:36:27.124Z,3.53
2022-12-13T01:39:31.946Z,3.40
2022-12-13T01:42:41.806Z,4.00
2022-12-13T01:45:46.424Z,4.95
2022-12-13T01:48:56.657Z,3.75
2022-12-13T01:52:06.188Z,2.70
2022-12-13T01:55:12.042Z,2.92
2022-12-13T01:58:17.094Z,3.17
2022-12-13T02:01:23.284Z,3.97
2022-12-13T02:04:34.896Z,3.65
2022-12-13T02:07:50.007Z,5.65
2022-12-13T02:10:53.329Z,4.40
2022-12-13T02:13:56.321Z,3.42
2022-12-13T02:17:08.520Z,4.97
2022-12-13T02:20:52.300Z,4.93
2022-12-13T02:24:36.100Z,2.95
2022-12-13T02:28:04.311Z,3.00
2022-12-13T02:31:37.693Z,3.72
2022-12-13T02:34:46.862Z,5.73
2022-12-13T02:38:00.103Z,3.42
2022-12-13T02:41:14.830Z,4.63
2022-12-13T02:44:23.404Z,3.72
2022-12-13T02:47:32.429Z,4.78
2022-12-13T02:50:37.623Z,2.88
2022-12-13T02:53:44.151Z,4.20
2022-12-13T02:56:55.753Z,8.85
2022-12-13T03:00:05.984Z,5.72
2022-12-13T03:03:24.819Z,4.63
2022-12-13T03:06:44.284Z,3.60
2022-12-13T03:09:59.685Z,4.88
2022-12-13T03:13:29.157Z,3.28
2022-12-13T03:16:38.376Z,2.80
2022-12-13T03:19:43.374Z,3.08
2022-12-13T03:22:46.569Z,3.65
2022-12-13T03:25:54.365Z,3.33
2022-12-13T03:28:57.388Z,3.85
2022-12-13T03:32:00.477Z,4.60
2022-12-13T03:35:05.581Z,4.80
2022-12-13T03:38:28.449Z,4.35
2022-12-13T03:41:32.718Z,2.80
2022-12-13T03:44:35.717Z,2.50
2022-12-13T03:47:38.825Z,3.47
2022-12-13T03:50:43.297Z,3.83
2022-12-13T03:53:46.311Z,3.80
2022-12-13T03:56:49.371Z,3.67
2022-12-13T03:59:52.530Z,3.10
2022-12-13T04:02:55.737Z,3.53
2022-12-13T04:06:00.113Z,4.03
2022-12-13T04:09:03.327Z,2.78
2022-12-13T04:12:24.451Z,2.73
2022-12-13T04:15:28.149Z,2.63
2022-12-13T04:18:31.502Z,6.57
2022-12-13T04:21:35.843Z,3.03
2022-12-13T04:24:38.931Z,2.47
2022-12-13T04:27:41.945Z,3.03
2022-12-13T04:30:44.959Z,2.20
2022-12-13T04:33:47.977Z,5.45
2022-12-13T04:36:52.331Z,3.28
2022-12-13T04:40:00.748Z,3.50
2022-12-13T04:43:04.157Z,2.10
2022-12-13T04:46:07.383Z,3.17
2022-12-13T04:49:10.441Z,4.00
2022-12-13T04:52:22.040Z,3.35
2022-12-13T04:55:25.934Z,3.03
2022-12-13T04:58:29.266Z,2.70
2022-12-13T05:01:32.555Z,2.55
2022-12-13T05:04:36.247Z,4.10
2022-12-13T05:07:42.679Z,2.67
2022-12-13T05:10:46.105Z,3.20
2022-12-13T05:13:49.190Z,2.73
2022-12-13T05:16:53.271Z,2.30
2022-12-13T05:19:56.501Z,3.08
2022-12-13T05:23:00.949Z,3.23
2022-12-13T05:26:05.648Z,8.63
2022-12-13T05:29:08.731Z,3.85
2022-12-13T05:32:11.780Z,3.53
2022-12-13T05:35:21.782Z,3.33
2022-12-13T05:38:28.156Z,4.05
2022-12-13T05:41:37.796Z,4.20
2022-12-13T05:44:40.802Z,5.63
2022-12-13T05:47:44.141Z,5.60
2022-12-13T05:50:47.400Z,4.80
2022-12-13T05:53:53.508Z,5.00
2022-12-13T05:56:56.945Z,4.70
2022-12-13T06:00:00.146Z,4.32
2022-12-13T06:03:03.259Z,4.83
2022-12-13T06:06:09.329Z,6.67
2022-12-13T06:09:13.787Z,4.43
2022-12-13T06:12:31.497Z,4.28
2022-12-13T06:15:35.752Z,5.85
2022-12-13T06:18:48.140Z,3.72
2022-12-13T06:21:55.557Z,3.15
2022-12-13T06:25:01.533Z,3.90
2022-12-13T06:28:05.050Z,4.97
2022-12-13T06:31:08.735Z,4.03
2022-12-13T06:34:13.967Z,5.13
2022-12-13T06:37:18.329Z,4.80
2022-12-13T06:40:23.321Z,3.13
2022-12-13T06:43:26.526Z,5.72
2022-12-13T06:46:29.706Z,5.23
2022-12-13T06:49:32.844Z,8.37
2022-12-13T06:52:36.473Z,7.63
2022-12-13T06:55:40.696Z,8.00
2022-12-13T06:58:44.563Z,4.75
2022-12-13T07:01:50.601Z,4.57
2022-12-13T07:04:56.225Z,5.65
2022-12-13T07:07:59.302Z,4.35
2022-12-13T07:11:03.942Z,3.83
2022-12-13T07:14:07.668Z,4.45
2022-12-13T07:17:11.707Z,4.18
2022-12-13T07:23:19.038Z,4.13
2022-12-13T07:26:29.136Z,3.50
2022-12-13T07:29:32.411Z,2.28
2022-12-13T07:32:35.536Z,5.95
2022-12-13T07:35:38.497Z,4.73
2022-12-13T07:38:42.070Z,3.35
2022-12-13T07:41:49.666Z,2.70
2022-12-13T07:44:53.949Z,4.47
2022-12-13T07:47:57.061Z,3.58
2022-12-13T07:51:04.114Z,5.20
2022-12-13T07:54:08.378Z,4.85
2022-12-13T07:57:13.240Z,3.35
2022-12-13T08:00:17.140Z,7.97
2022-12-13T08:06:29.335Z,15.15
2022-12-13T08:09:32.282Z,6.22
2022-12-13T08:12:36.635Z,9.00
2022-12-13T08:15:39.679Z,8.75
2022-12-13T08:18:44.054Z,11.17
2022-12-13T08:21:56.285Z,17.17
2022-12-13T08:25:00.683Z,10.95
2022-12-13T08:28:05.526Z,9.80
2022-12-13T08:31:12.123Z,9.45
2022-12-13T08:34:15.222Z,10.23
2022-12-13T08:37:18.829Z,7.63
2022-12-13T08:40:22.138Z,12.18
2022-12-13T08:43:26.530Z,10.52
2022-12-13T08:46:29.716Z,14.30
2022-12-13T08:49:32.887Z,18.20
2022-12-13T08:52:40.673Z,12.17
2022-12-13T08:55:45.709Z,8.57
2022-12-13T08:58:52.516Z,8.90
2022-12-13T09:01:58.796Z,4.35
2022-12-13T09:05:08.079Z,7.25
2022-12-13T09:08:22.746Z,4.63
2022-12-13T09:11:34.511Z,6.28
2022-12-13T09:14:45.261Z,6.53
2022-12-13T09:17:52.580Z,6.50
2022-12-13T09:21:10.424Z,5.13
2022-12-13T09:24:24.238Z,4.88
2022-12-13T09:27:29.132Z,5.65
2022-12-13T09:30:33.666Z,10.73
2022-12-13T09:33:41.546Z,5.85
2022-12-13T09:36:44.835Z,5.90
2022-12-13T09:39:48.482Z,5.07
2022-12-13T09:43:12.824Z,7.57
2022-12-13T09:46:34.794Z,5.95
2022-12-13T09:49:53.118Z,7.88
2022-12-13T09:53:00.112Z,7.78
2022-12-13T09:56:10.280Z,8.57
2022-12-13T09:59:15.622Z,5.10
2022-12-13T10:02:27.300Z,7.20
2022-12-13T10:05:35.858Z,5.30
2022-12-13T10:08:45.601Z,6.20
2022-12-13T10:11:51.467Z,10.45
2022-12-13T10:15:00.875Z,6.22
2022-12-13T10:18:07.770Z,8.60
2022-12-13T10:21:19.151Z,6.05
2022-12-13T10:24:31.505Z,7.05
2022-12-13T10:27:42.229Z,5.10
2022-12-13T10:30:46.328Z,4.18
2022-12-13T10:33:57.765Z,8.30
2022-12-13T10:37:02.211Z,4.78
2022-12-13T10:40:06.369Z,3.70
2022-12-13T10:43:15.326Z,6.43
2022-12-13T10:46:25.063Z,5.68
2022-12-13T10:49:41.408Z,5.03
2022-12-13T10:52:48.852Z,4.65
2022-12-13T10:56:02.229Z,5.57
2022-12-13T10:59:27.173Z,5.70
2022-12-13T11:05:41.246Z,6.47
2022-12-13T11:08:45.084Z,3.63
2022-12-13T11:11:51.778Z,5.97
2022-12-13T11:15:07.240Z,6.50
2022-12-13T11:18:24.921Z,5.65
2022-12-13T11:21:32.438Z,7.28
2022-12-13T11:24:40.722Z,4.88
2022-12-13T11:28:03.786Z,6.85
2022-12-13T11:31:39.346Z,4.15
2022-12-13T11:34:55.291Z,4.88
2022-12-13T11:38:15.767Z,7.60
2022-12-13T11:41:31.317Z,4.43
2022-12-13T11:44:50.497Z,4.30
2022-12-13T11:48:04.845Z,5.35
2022-12-13T11:54:24.558Z,3.72
2022-12-13T11:57:40.363Z,4.47
2022-12-13T12:00:50.750Z,4.40
2022-12-13T12:04:02.885Z,3.30
2022-12-13T12:07:31.732Z,4.47
2022-12-13T12:10:49.249Z,4.47
2022-12-13T12:13:57.791Z,4.80
2022-12-13T12:17:01.422Z,2.95
2022-12-13T12:20:07.368Z,3.45
2022-12-13T12:23:29.411Z,3.58
2022-12-13T12:26:46.619Z,6.07
2022-12-13T12:30:05.132Z,4.55
2022-12-13T12:33:18.994Z,3.30
2022-12-13T12:36:48.296Z,3.28
2022-12-13T12:40:27.071Z,3.22
2022-12-13T12:43:40.836Z,5.00
2022-12-13T12:47:31.117Z,4.80
2022-12-13T12:50:43.141Z,3.55
2022-12-13T12:53:55.618Z,4.05
2022-12-13T12:57:10.884Z,3.67
2022-12-13T13:00:18.934Z,4.28
2022-12-13T13:03:25.355Z,6.90
2022-12-13T13:06:35.927Z,3.72
2022-12-13T13:09:41.294Z,3.03
2022-12-13T13:12:45.350Z,3.20
2022-12-13T13:19:02.323Z,4.38
2022-12-13T13:22:06.389Z,5.82
2022-12-13T13:25:33.083Z,3.65
2022-12-13T13:28:36.143Z,2.83
2022-12-13T13:32:01.579Z,2.57
2022-12-13T13:35:50.501Z,3.08
2022-12-13T13:38:55.329Z,3.45
2022-12-13T13:42:19.925Z,2.58
2022-12-13T13:45:25.152Z,3.30
2022-12-13T13:48:53.194Z,5.05
2022-12-13T13:52:27.271Z,3.00
2022-12-13T13:55:49.937Z,4.32
2022-12-13T13:59:38.143Z,5.68
2022-12-13T14:03:55.370Z,3.22
2022-12-13T14:07:53.611Z,3.55
2022-12-13T14:12:14.338Z,3.67
2022-12-13T14:16:20.359Z,4.10
2022-12-13T14:20:26.526Z,5.57
2022-12-13T14:23:50.554Z,4.07
2022-12-13T14:27:13.300Z,2.87
2022-12-13T14:30:28.449Z,8.73
2022-12-13T14:33:32.655Z,6.47
2022-12-13T14:36:39.089Z,8.17
2022-12-13T14:39:46.068Z,6.78
2022-12-13T14:42:54.683Z,6.45
2022-12-13T14:45:59.850Z,9.13
2022-12-13T14:49:07.634Z,9.45
2022-12-13T14:52:26.218Z,12.43
2022-12-13T14:55:36.175Z,16.98
2022-12-13T14:58:40.455Z,9.05
2022-12-13T15:01:44.546Z,10.82
2022-12-13T15:04:47.876Z,11.77
2022-12-13T15:07:53.221Z,10.25
2022-12-13T15:11:01.390Z,12.35
2022-12-13T15:14:12.804Z,15.77
2022-12-13T15:17:35.855Z,11.38
2022-12-13T15:20:42.241Z,15.48
2022-12-13T15:23:48.864Z,12.75
2022-12-13T15:26:53.128Z,12.60
2022-12-13T15:29:56.565Z,12.52
2022-12-13T15:33:08.837Z,16.70
2022-12-13T15:36:18.001Z,13.07
2022-12-13T15:39:24.999Z,16.52
2022-12-13T15:42:35.421Z,14.45
2022-12-13T15:45:42.597Z,11.60
2022-12-13T15:48:50.331Z,14.40
2022-12-13T15:52:02.275Z,13.07
2022-12-13T15:55:34.659Z,14.93
2022-12-13T15:58:38.704Z,14.70
2022-12-13T16:01:41.716Z,13.10
2022-12-13T16:04:44.995Z,13.48
2022-12-13T16:07:56.436Z,10.88
2022-12-13T16:11:01.714Z,14.13
2022-12-13T16:14:40.960Z,12.73
2022-12-13T16:17:56.080Z,20.08
2022-12-13T16:21:02.596Z,18.15
2022-12-13T16:24:06.092Z,12.48
2022-12-13T16:27:11.633Z,18.85
2022-12-13T16:30:23.993Z,15.13
2022-12-13T16:33:27.913Z,13.32
2022-12-13T16:39:33.953Z,15.20
2022-12-13T16:42:38.342Z,13.75
2022-12-13T16:45:45.647Z,11.40
2022-12-13T16:48:48.777Z,16.10
2022-12-13T16:51:52.409Z,18.87
2022-12-13T16:54:55.538Z,19.73
2022-12-13T16:58:03.129Z,18.90
2022-12-13T17:01:12.485Z,13.35
2022-12-13T17:04:21.689Z,15.50
2022-12-13T17:07:27.564Z,14.65
2022-12-13T17:10:32.131Z,14.68
2022-12-13T17:13:36.547Z,18.05
2022-12-13T17:16:39.779Z,13.95
2022-12-13T17:19:42.892Z,15.53
2022-12-13T17:22:47.356Z,11.90
2022-12-13T17:25:58.087Z,16.23
2022-12-13T17:29:03.073Z,13.00
2022-12-13T17:32:06.656Z,13.55
2022-12-13T17:35:14.849Z,17.45
2022-12-13T17:38:21.016Z,13.35
2022-12-13T17:41:24.448Z,13.57
2022-12-13T17:44:28.859Z,12.25
2022-12-13T17:47:31.878Z,9.52
2022-12-13T17:50:35.229Z,11.13
2022-12-13T17:53:40.921Z,10.18
2022-12-13T17:56:44.030Z,11.13
2022-12-13T17:59:48.372Z,12.93
2022-12-13T18:02:55.474Z,12.95
2022-12-13T18:06:00.565Z,10.80
2022-12-13T18:09:04.046Z,12.38
2022-12-13T18:12:08.497Z,14.93
2022-12-13T18:15:12.930Z,14.27
2022-12-13T18:18:16.112Z,15.10
2022-12-13T18:21:20.286Z,13.03
2022-12-13T18:27:26.497Z,14.00
2022-12-13T18:30:32.178Z,16.27
2022-12-13T18:33:36.188Z,14.88
2022-12-13T18:39:43.852Z,16.20
2022-12-13T18:46:03.991Z,14.88
2022-12-13T18:49:07.767Z,19.20
2022-12-13T18:52:11.139Z,15.85
2022-12-13T18:55:15.054Z,20.73
2022-12-13T18:58:18.051Z,17.98
2022-12-13T19:01:26.695Z,21.80
2022-12-13T19:04:29.774Z,18.48
2022-12-13T19:07:32.761Z,19.97
2022-12-13T19:10:35.964Z,16.75
2022-12-13T19:13:38.951Z,19.33
2022-12-13T19:16:43.364Z,19.63
2022-12-13T19:19:48.440Z,21.23
2022-12-13T19:22:51.839Z,23.08
2022-12-13T19:25:54.905Z,23.13
2022-12-13T19:28:59.425Z,20.97
2022-12-13T19:32:03.866Z,23.20
2022-12-13T19:35:08.268Z,22.65
2022-12-13T19:38:11.763Z,22.55
2022-12-13T19:41:19.282Z,22.80
2022-12-13T19:44:22.325Z,25.85
2022-12-13T19:47:26.738Z,23.50
2022-12-13T19:50:31.051Z,26.42
2022-12-13T19:53:35.238Z,25.55
2022-12-13T19:56:38.326Z,26.92
2022-12-13T19:59:41.320Z,22.80
2022-12-13T20:02:45.693Z,31.30
2022-12-13T20:05:58.507Z,27.23
2022-12-13T20:09:01.641Z,27.92
2022-12-13T20:12:05.187Z,27.57
2022-12-13T20:15:09.768Z,29.70
2022-12-13T20:18:14.111Z,23.65
2022-12-13T20:21:17.268Z,25.77
2022-12-13T20:24:20.386Z,30.90
2022-12-13T20:27:23.508Z,24.65
2022-12-13T20:30:26.575Z,27.33
2022-12-13T20:33:30.913Z,28.00
2022-12-13T20:36:33.942Z,24.08
2022-12-13T20:39:37.101Z,28.52
2022-12-13T20:42:40.262Z,26.87
2022-12-13T20:45:43.356Z,29.17
2022-12-13T20:48:49.387Z,31.23
2022-12-13T20:51:52.515Z,30.75
2022-12-13T20:54:55.559Z,29.43
2022-12-13T20:57:58.608Z,29.80
2022-12-13T21:01:02.380Z,30.38
2022-12-13T21:04:09.465Z,30.67
2022-12-13T21:07:12.462Z,31.08
2022-12-13T21:10:15.506Z,31.00
2022-12-13T21:13:18.654Z,28.17
2022-12-13T21:16:23.576Z,30.03
2022-12-13T21:19:35.827Z,26.27
2022-12-13T21:22:42.269Z,28.42
2022-12-13T21:25:45.337Z,32.78
2022-12-13T21:28:54.268Z,33.95
2022-12-13T21:31:57.332Z,30.90
2022-12-13T21:35:01.784Z,38.93
2022-12-13T21:38:05.566Z,31.33
2022-12-13T21:41:10.748Z,32.78
2022-12-13T21:44:16.647Z,35.78
2022-12-13T21:47:19.731Z,31.55
2022-12-13T21:50:24.116Z,34.45
2022-12-13T21:53:28.380Z,34.55
2022-12-13T21:56:50.099Z,35.78
2022-12-13T21:59:53.081Z,30.98
2022-12-13T22:02:56.274Z,29.55
2022-12-13T22:06:00.672Z,33.53
2022-12-13T22:09:03.959Z,37.58
2022-12-13T22:12:10.747Z,35.58
2022-12-13T22:15:16.543Z,35.30
2022-12-13T22:18:19.766Z,34.03
2022-12-13T22:21:24.447Z,34.77
2022-12-13T22:24:27.621Z,33.78
2022-12-13T22:27:30.627Z,35.58
2022-12-13T22:30:33.866Z,32.70
2022-12-13T22:33:36.911Z,31.73
2022-12-13T22:36:41.254Z,37.33
2022-12-13T22:39:44.252Z,34.50
2022-12-13T22:42:48.446Z,39.85
2022-12-13T22:45:51.725Z,37.92
2022-12-13T22:48:55.877Z,34.05
2022-12-13T22:52:00.163Z,37.28
2022-12-13T22:55:03.678Z,37.15
2022-12-13T22:58:06.673Z,35.28
2022-12-13T23:01:12.162Z,35.58
2022-12-13T23:04:15.611Z,35.10
2022-12-13T23:07:20.017Z,36.33
2022-12-13T23:10:40.834Z,30.20
2022-12-13T23:13:43.818Z,34.92
2022-12-13T23:16:51.496Z,34.40
2022-12-13T23:19:54.685Z,35.40
2022-12-13T23:22:59.771Z,33.47
2022-12-13T23:26:10.468Z,31.30
2022-12-13T23:29:13.923Z,35.85
2022-12-13T23:32:17.492Z,33.70
2022-12-13T23:35:20.424Z,31.83
2022-12-13T23:38:25.126Z,36.33
2022-12-13T23:41:33.637Z,33.83
2022-12-13T23:44:37.717Z,33.25
2022-12-13T23:47:40.697Z,32.80
2022-12-13T23:50:43.728Z,30.92
2022-12-13T23:53:48.267Z,28.33
2022-12-13T23:56:51.260Z,31.40
2022-12-13T23:59:54.339Z,35.42
